Terminal Aerodrome Forecast
Issued by NWS

Home | Current Version | Previous Version | Text Only | Print | Product List | Glossary On
Versions: 1 2 3 4 5 6 7 8 9 10 11 12 13 14 15 16 17
000
FTUS41 KCAR 242300
TAFPQI
TAF
KPQI 242326Z 2500/2524 VRB03KT P6SM SKC
     FM250600 VRB02KT 6SM BCFG SKC
     FM251000 VRB02KT P6SM SKC
     FM251500 27006KT P6SM SCT050
      AMD LTD TO CLD VIS AND WIND=

USA.gov is the U.S. government's official web portal to all federal, state and local government web resources and services.